Time;durP1;ratioP1;P1;durP2;ratioP2;P2;SDS_P1;SDS_P2;PMS_P1;PMS_P2;Temp;Humidity;BMP_temperature;BMP_pressure;BME280_temperature;BME280_humidity;BME280_pressure;Samples;Min_cycle;Max_cycle;Signal;HPM_P1;HPM_P2
2022/12/03 00:01:11;;;;;;;;;28.50;21.25;;;;;6.62;74.82;101140.59;5031668;28;45706;-81
2022/12/03 00:03:36;;;;;;;;;25.25;22.00;;;;;6.54;74.63;101131.44;5051164;28;45541;-82
2022/12/03 00:06:02;;;;;;;;;23.50;21.75;;;;;6.56;74.68;101137.66;5051918;28;45724;-82
2022/12/03 00:08:27;;;;;;;;;29.50;25.00;;;;;6.55;74.60;101135.88;5051626;28;45802;-81
2022/12/03 00:10:52;;;;;;;;;26.67;22.00;;;;;6.44;74.68;101110.84;5052065;28;50652;-79
2022/12/03 00:13:18;;;;;;;;;28.00;25.00;;;;;6.57;75.01;101135.94;5051068;28;58715;-81
2022/12/03 00:15:43;;;;;;;;;28.00;24.00;;;;;6.50;74.79;101111.19;5051571;28;45506;-80
2022/12/03 00:18:09;;;;;;;;;25.00;20.00;;;;;6.64;74.71;101138.97;5050959;28;56926;-81
2022/12/03 00:20:34;;;;;;;;;24.50;21.50;;;;;6.56;74.85;101114.16;5051668;28;45396;-81
2022/12/03 00:22:59;;;;;;;;;25.67;22.00;;;;;6.67;74.47;101138.25;5033538;28;46019;-82
2022/12/03 00:25:25;;;;;;;;;29.00;26.33;;;;;6.59;74.52;101119.53;5050451;28;61529;-81
2022/12/03 00:27:50;;;;;;;;;25.25;22.00;;;;;6.65;74.65;101134.66;5051846;28;45500;-82
2022/12/03 00:30:15;;;;;;;;;26.33;21.00;;;;;6.63;74.47;101131.97;5050913;28;45418;-81
2022/12/03 00:32:41;;;;;;;;;33.00;28.00;;;;;6.63;74.41;101131.06;5044728;28;45440;-81
2022/12/03 00:35:06;;;;;;;;;25.75;22.75;;;;;6.49;74.35;101111.09;5030947;28;45521;-81
2022/12/03 00:37:33;;;;;;;;;24.50;19.75;;;;;6.56;74.49;101128.94;5030910;28;45358;-81
2022/12/03 00:39:59;;;;;;;;;27.25;21.00;;;;;6.53;74.50;101115.69;5037946;28;45532;-81
2022/12/03 00:42:25;;;;;;;;;26.50;22.25;;;;;6.58;74.63;101122.97;5051127;28;45904;-81
2022/12/03 00:44:50;;;;;;;;;24.50;23.00;;;;;6.49;74.63;101092.81;5037694;28;45515;-82
2022/12/03 00:47:15;;;;;;;;;26.25;24.25;;;;;6.60;74.57;101110.91;5030849;28;45393;-79
2022/12/03 00:49:40;;;;;;;;;27.25;21.00;;;;;6.68;74.32;101121.78;5031330;28;45595;-81
2022/12/03 00:52:06;;;;;;;;;25.33;20.00;;;;;6.67;74.73;101117.38;5030198;28;61089;-79
2022/12/03 00:54:31;;;;;;;;;23.00;18.67;;;;;6.67;74.05;101118.25;5030551;28;45829;-81
2022/12/03 00:56:57;;;;;;;;;20.50;19.50;;;;;6.67;74.42;101113.03;5044171;28;45550;-82
2022/12/03 00:59:22;;;;;;;;;28.50;22.00;;;;;6.68;74.38;101113.94;5050671;28;45672;-82
2022/12/03 01:01:47;;;;;;;;;22.33;18.67;;;;;6.68;74.18;101100.88;5030490;28;52093;-82
2022/12/03 01:04:12;;;;;;;;;28.00;22.67;;;;;6.63;74.01;101105.84;5008953;28;50395;-81
2022/12/03 01:06:38;;;;;;;;;30.67;23.67;;;;;6.42;74.18;101078.53;5030298;28;49675;-82
2022/12/03 01:09:04;;;;;;;;;29.50;25.00;;;;;6.63;74.34;101110.16;5038026;28;45761;-81
2022/12/03 01:11:38;;;;;;;;;22.25;21.00;;;;;6.64;74.15;101097.19;5049090;28;47181;-82
2022/12/03 01:14:13;;;;;;;;;19.00;16.50;;;;;6.54;74.28;101092.25;5035299;28;45549;-80
2022/12/03 01:16:38;;;;;;;;;24.75;20.75;;;;;6.53;74.17;101084.34;5030785;28;45471;-82
2022/12/03 01:19:05;;;;;;;;;31.50;26.25;;;;;6.55;73.73;101083.66;5030636;28;45347;-80
2022/12/03 01:21:31;;;;;;;;;25.00;22.25;;;;;6.66;74.30;101112.97;5030542;28;46578;-82
2022/12/03 01:23:56;;;;;;;;;24.50;19.75;;;;;6.50;74.45;101082.44;5030536;28;45483;-82
2022/12/03 01:26:22;;;;;;;;;22.75;16.00;;;;;6.35;74.14;101064.22;5047071;28;45707;-82
2022/12/03 01:28:47;;;;;;;;;23.25;22.75;;;;;6.67;74.10;101113.03;5050811;28;45666;-82
2022/12/03 01:33:56;;;;;;;;;25.50;20.25;;;;;6.44;74.11;101072.56;5049280;28;45862;-82
2022/12/03 01:36:22;;;;;;;;;26.25;18.25;;;;;6.49;74.08;101083.28;5029783;28;52767;-82
2022/12/03 01:38:50;;;;;;;;;23.75;18.75;;;;;6.66;73.99;101110.34;5028986;28;45553;-82
2022/12/03 01:41:17;;;;;;;;;21.00;18.00;;;;;6.55;73.82;101093.16;5030230;28;45818;-82
2022/12/03 01:43:43;;;;;;;;;22.00;19.75;;;;;6.69;73.90;101121.84;5030648;28;45746;-81
2022/12/03 01:46:17;;;;;;;;;25.25;22.00;;;;;6.73;73.83;101123.81;5011457;28;45761;-81
2022/12/03 01:48:43;;;;;;;;;27.50;22.50;;;;;6.71;73.61;101120.25;5030921;28;45482;-82
2022/12/03 01:51:09;;;;;;;;;21.25;18.50;;;;;6.71;73.86;101115.00;5029979;28;45474;-81
2022/12/03 01:53:37;;;;;;;;;28.00;21.00;;;;;6.63;73.71;101103.22;5030012;28;45473;-81
2022/12/03 01:56:03;;;;;;;;;20.50;19.50;;;;;6.73;73.69;101110.75;5030121;28;45456;-81
2022/12/03 01:58:28;;;;;;;;;22.75;18.25;;;;;6.73;73.61;101112.47;5029439;28;45450;-81
2022/12/03 02:00:56;;;;;;;;;23.50;20.25;;;;;6.52;73.59;101080.84;5046555;28;47400;-81
2022/12/03 02:03:24;;;;;;;;;15.75;14.75;;;;;6.54;73.36;101084.44;5044357;28;45415;-82
2022/12/03 02:05:50;;;;;;;;;20.75;19.00;;;;;6.71;73.43;101117.63;5030703;28;45825;-81
2022/12/03 02:08:33;;;;;;;;;19.75;18.00;;;;;6.72;72.92;101111.59;5029546;28;45935;-82
2022/12/03 02:11:08;;;;;;;;;22.25;17.25;;;;;6.55;72.98;101083.66;5029956;28;45778;-82
2022/12/03 02:13:34;;;;;;;;;24.00;19.75;;;;;6.70;73.19;101112.31;5029890;28;45351;-82
2022/12/03 02:15:59;;;;;;;;;25.75;20.50;;;;;6.55;73.33;101077.50;5038317;28;45475;-81
2022/12/03 02:18:24;;;;;;;;;19.50;16.00;;;;;6.44;73.19;101069.06;5049348;28;45854;-82
2022/12/03 02:21:34;;;;;;;;;25.50;19.50;;;;;6.70;73.18;101115.84;5049879;28;46288;-81
2022/12/03 02:24:17;;;;;;;;;16.00;15.50;;;;;6.59;73.36;101096.03;5050090;28;45935;-82
2022/12/03 02:26:43;;;;;;;;;19.00;15.50;;;;;6.73;73.12;101112.47;5050516;28;45469;-82
2022/12/03 02:29:08;;;;;;;;;24.00;20.25;;;;;6.73;73.17;101108.16;5049415;28;45492;-82
2022/12/03 02:31:34;;;;;;;;;25.33;21.33;;;;;6.62;73.10;101085.78;5049249;28;45638;-82
2022/12/03 02:34:04;;;;;;;;;1.00;1.00;;;;;6.78;73.20;101110.13;5048349;28;45466;-82
2022/12/03 02:36:30;;;;;;;;;22.50;18.75;;;;;6.78;73.20;101111.03;5028915;28;45794;-82
2022/12/03 02:38:56;;;;;;;;;21.75;19.50;;;;;6.71;72.87;101096.72;5029553;28;45533;-81
2022/12/03 02:44:07;;;;;;;;;21.50;20.00;;;;;6.75;73.02;101104.72;5028267;28;46398;-82
2022/12/03 02:46:33;;;;;;;;;22.50;21.75;;;;;6.75;73.01;101100.41;5028832;28;45518;-81
2022/12/03 02:48:59;;;;;;;;;29.50;23.50;;;;;6.67;73.14;101081.69;5029686;28;45498;-82
2022/12/03 02:51:25;;;;;;;;;17.25;14.75;;;;;6.60;73.12;101084.78;5028625;28;45622;-82
2022/12/03 02:53:53;;;;;;;;;23.25;21.25;;;;;6.62;73.23;101082.25;5009817;28;45619;-81
2022/12/03 02:56:24;;;;;;;;;28.00;20.00;;;;;6.53;73.15;101071.28;5009304;28;45471;-81
2022/12/03 02:58:55;;;;;;;;;28.75;21.75;;;;;6.59;73.42;101084.69;5009664;28;45722;-80
2022/12/03 03:01:20;;;;;;;;;30.75;24.75;;;;;6.61;73.49;101097.03;5026618;28;45902;-82
2022/12/03 03:03:47;;;;;;;;;20.50;18.50;;;;;6.51;73.29;101089.50;5029212;28;45874;-82
2022/12/03 03:06:14;;;;;;;;;29.50;23.00;;;;;6.32;73.48;101058.84;5038999;28;45532;-82
2022/12/03 03:08:41;;;;;;;;;22.50;20.25;;;;;6.56;73.59;101098.50;5038034;28;45553;-81
2022/12/03 03:11:06;;;;;;;;;23.50;20.50;;;;;6.40;73.65;101070.63;5041110;28;45481;-81
2022/12/03 03:13:33;;;;;;;;;25.00;23.25;;;;;6.51;73.55;101099.94;5048624;28;45689;-82
2022/12/03 03:16:01;;;;;;;;;27.75;21.50;;;;;6.45;73.80;101079.63;5011320;28;45486;-82
2022/12/03 03:18:27;;;;;;;;;21.00;20.25;;;;;6.39;73.63;101073.13;5028305;28;45548;-82
2022/12/03 03:20:52;;;;;;;;;28.75;24.25;;;;;6.52;73.80;101093.00;5028540;28;47168;-82
2022/12/03 03:23:20;;;;;;;;;27.75;22.00;;;;;6.54;73.42;101099.19;5028851;28;45692;-81
2022/12/03 03:25:50;;;;;;;;;24.25;20.00;;;;;6.51;73.47;101096.44;5029088;28;45439;-79
2022/12/03 03:28:17;;;;;;;;;23.75;21.50;;;;;6.39;73.69;101068.81;5027681;28;45680;-82
2022/12/03 03:30:43;;;;;;;;;24.00;21.50;;;;;6.31;73.56;101050.94;5028244;28;46400;-82
2022/12/03 03:33:11;;;;;;;;;26.00;20.50;;;;;6.53;73.76;101093.09;5028362;28;45924;-81
2022/12/03 03:35:37;;;;;;;;;25.50;24.00;;;;;6.55;73.62;101094.09;5028572;28;45706;-80
2022/12/03 03:38:03;;;;;;;;;29.25;25.25;;;;;6.38;73.56;101063.50;5028580;28;45498;-81
2022/12/03 03:40:29;;;;;;;;;23.25;21.00;;;;;6.59;73.57;101100.34;5028277;28;45580;-81
2022/12/03 03:42:54;;;;;;;;;28.25;25.25;;;;;6.58;73.48;101096.84;5029272;28;45423;-81
2022/12/03 03:45:20;;;;;;;;;32.50;25.25;;;;;6.41;73.49;101056.75;5028622;28;45553;-81
2022/12/03 03:47:46;;;;;;;;;30.25;24.25;;;;;6.54;73.50;101087.03;5029819;28;45558;-81
2022/12/03 03:50:13;;;;;;;;;27.50;24.00;;;;;6.59;73.45;101095.13;5028069;28;45427;-83
2022/12/03 03:52:40;;;;;;;;;30.00;27.50;;;;;6.59;73.42;101092.53;5028487;28;45829;-81
2022/12/03 03:55:07;;;;;;;;;23.75;19.50;;;;;6.58;73.31;101099.47;5028803;28;45749;-81
2022/12/03 03:57:32;;;;;;;;;31.75;24.00;;;;;6.59;73.38;101089.91;5031543;28;45887;-80
2022/12/03 03:59:58;;;;;;;;;32.00;24.75;;;;;6.61;73.60;101104.88;5031606;28;45638;-81
2022/12/03 04:02:25;;;;;;;;;20.25;18.00;;;;;6.64;73.54;101102.41;5031119;28;45496;-81
2022/12/03 04:04:51;;;;;;;;;33.75;26.00;;;;;6.52;73.28;101067.78;5031701;28;45877;-81
2022/12/03 04:07:17;;;;;;;;;29.00;21.75;;;;;6.55;73.43;101070.59;5030942;28;45567;-80
2022/12/03 04:09:43;;;;;;;;;29.75;23.50;;;;;6.70;73.19;101080.97;5031640;28;46458;-80
2022/12/03 04:14:54;;;;;;;;;24.25;22.50;;;;;6.43;73.13;101043.78;5032062;28;45904;-79
2022/12/03 04:17:19;;;;;;;;;32.00;23.33;;;;;6.55;72.78;101062.75;5030184;28;55989;-82
2022/12/03 04:19:44;;;;;;;;;22.67;19.33;;;;;6.66;73.44;101079.91;5030379;28;66483;-81
2022/12/03 04:28:47;;;;;;;;;22.75;20.25;;;;;6.67;72.90;101080.81;5032473;28;45720;-80
2022/12/03 04:30:26;;;;;;;;;25.75;20.50;;;;;6.58;72.78;101062.00;5037345;28;45796;-80
2022/12/03 04:35:50;;;;;;;;;26.25;23.75;;;;;6.47;72.72;101041.41;5031548;28;45372;-81
2022/12/03 04:38:16;;;;;;;;;26.50;22.25;;;;;6.20;72.60;100999.00;5031354;28;45409;-80
2022/12/03 04:41:00;;;;;;;;;21.75;21.00;;;;;6.62;72.75;101087.47;5031338;28;45452;-81
2022/12/03 04:43:26;;;;;;;;;29.25;22.50;;;;;6.35;72.73;101039.81;5030652;28;45852;-81
2022/12/03 04:45:52;;;;;;;;;25.25;21.50;;;;;6.56;72.78;101080.22;5031233;28;45677;-80
2022/12/03 04:48:17;;;;;;;;;32.33;22.67;;;;;6.54;72.61;101070.47;5030444;28;50795;-81
2022/12/03 04:50:42;;;;;;;;;23.50;21.25;;;;;6.47;72.72;101061.41;5030995;28;46554;-81
2022/12/03 04:53:08;;;;;;;;;24.00;23.00;;;;;6.57;72.72;101079.38;5029684;28;50262;-82
2022/12/03 04:55:33;;;;;;;;;28.00;23.50;;;;;6.39;72.42;101045.31;5031226;28;45875;-81
2022/12/03 04:57:59;;;;;;;;;19.50;18.75;;;;;6.58;72.68;101077.66;5031039;28;45711;-81
2022/12/03 05:00:24;;;;;;;;;25.50;23.25;;;;;6.57;72.57;101058.50;5030475;28;46696;-81
2022/12/03 05:02:49;;;;;;;;;26.00;22.00;;;;;6.49;72.45;101058.88;5030762;28;59437;-80
2022/12/03 05:05:15;;;;;;;;;24.00;21.50;;;;;6.41;72.31;101050.63;5030471;28;45893;-80
2022/12/03 05:07:40;;;;;;;;;24.75;19.75;;;;;6.36;72.48;101021.66;5030303;28;45398;-81
2022/12/03 05:10:06;;;;;;;;;21.33;19.00;;;;;6.57;72.27;101065.44;5030527;28;55036;-81
2022/12/03 05:12:32;;;;;;;;;31.00;26.00;;;;;6.54;72.41;101068.75;5030579;28;45828;-81
2022/12/03 05:14:57;;;;;;;;;25.33;21.67;;;;;6.41;72.07;101048.03;5031213;28;45376;-82
2022/12/03 05:17:22;;;;;;;;;27.00;24.50;;;;;6.54;72.34;101070.47;5030281;28;45412;-81
2022/12/03 05:22:32;;;;;;;;;23.00;22.00;;;;;6.47;72.33;101066.63;5050738;28;46106;-80
2022/12/03 05:24:57;;;;;;;;;27.67;22.33;;;;;6.48;72.37;101057.97;5050635;28;54349;-81
2022/12/03 05:27:22;;;;;;;;;23.67;21.33;;;;;6.61;72.31;101080.47;5049498;28;55392;-80
2022/12/03 05:29:48;;;;;;;;;24.25;19.00;;;;;6.50;72.14;101056.34;5051017;28;45704;-81
2022/12/03 05:32:13;;;;;;;;;29.50;25.50;;;;;6.59;72.24;101071.63;5050070;28;45332;-81
2022/12/03 05:34:39;;;;;;;;;22.50;20.25;;;;;6.59;72.43;101072.53;5043850;28;45634;-81
2022/12/03 05:37:04;;;;;;;;;32.25;23.25;;;;;6.61;72.25;101072.63;5030735;28;45827;-81
2022/12/03 05:39:30;;;;;;;;;24.75;23.00;;;;;6.56;71.84;101069.75;5030229;28;45936;-81
2022/12/03 05:44:39;;;;;;;;;23.50;21.50;;;;;6.26;72.08;101008.91;5030528;28;45465;-80
2022/12/03 05:47:04;;;;;;;;;26.50;22.75;;;;;6.62;72.01;101072.72;5029582;28;55505;-80
2022/12/03 05:49:30;;;;;;;;;19.00;19.00;;;;;6.56;71.88;101066.25;5029206;28;57951;-82
2022/12/03 05:51:55;;;;;;;;;27.00;24.00;;;;;6.57;71.89;101058.50;5029528;28;55939;-82
2022/12/03 05:54:20;;;;;;;;;23.00;19.67;;;;;6.57;71.52;101068.06;5045178;28;45471;-82
2022/12/03 05:56:46;;;;;;;;;25.33;22.00;;;;;6.32;71.77;101029.22;5046708;28;49968;-81
2022/12/03 05:59:11;;;;;;;;;26.00;21.33;;;;;6.52;71.67;101064.28;5049545;28;45479;-80
2022/12/03 06:01:36;;;;;;;;;28.67;22.33;;;;;6.42;71.50;101047.22;5049934;28;47668;-81
2022/12/03 06:04:01;;;;;;;;;22.33;19.00;;;;;6.36;72.42;101032.09;5049386;28;56279;-81
2022/12/03 06:06:27;;;;;;;;;15.33;15.33;;;;;6.36;71.90;101039.94;5049973;28;45623;-82
2022/12/03 06:08:52;;;;;;;;;23.00;19.33;;;;;6.51;72.21;101075.53;5048800;28;58020;-80
2022/12/03 06:11:17;;;;;;;;;28.00;20.33;;;;;6.49;72.24;101066.72;5028508;28;65060;-82
2022/12/03 06:13:42;;;;;;;;;31.00;24.67;;;;;6.35;72.34;101050.25;5029602;28;53326;-82
2022/12/03 06:16:08;;;;;;;;;23.00;19.00;;;;;6.25;72.34;101032.28;5035876;28;53832;-81
2022/12/03 06:18:33;;;;;;;;;27.33;19.67;;;;;6.34;72.27;101054.59;5046717;28;60455;-82
2022/12/03 06:20:58;;;;;;;;;24.67;20.67;;;;;6.31;72.27;101035.28;5031328;28;62449;-81
2022/12/03 06:23:24;;;;;;;;;21.00;19.00;;;;;6.39;72.03;101053.13;5055272;28;48625;-82
2022/12/03 06:25:49;;;;;;;;;19.50;17.50;;;;;6.47;72.37;101067.53;5068662;28;45128;-82
2022/12/03 06:28:14;;;;;;;;;19.67;18.00;;;;;6.46;71.93;101064.84;5054571;28;50696;-81
2022/12/03 06:30:39;;;;;;;;;23.25;17.50;;;;;6.33;72.09;101039.75;5048377;28;45168;-81
2022/12/03 06:33:05;;;;;;;;;22.00;19.67;;;;;6.32;71.96;101043.19;5044782;28;45386;-80
2022/12/03 06:35:30;;;;;;;;;20.33;16.00;;;;;6.46;72.05;101065.75;5047493;28;50598;-81
2022/12/03 06:37:55;;;;;;;;;25.25;19.50;;;;;6.49;71.93;101070.22;5048149;28;45742;-82
2022/12/03 06:40:23;;;;;;;;;23.50;20.50;;;;;6.38;71.74;101045.22;5042581;28;45383;-81
2022/12/03 06:42:48;;;;;;;;;25.00;23.25;;;;;6.43;72.03;101064.66;5059932;28;45371;-81
2022/12/03 06:45:13;;;;;;;;;19.25;17.50;;;;;6.34;71.86;101044.16;5064108;28;45339;-80
2022/12/03 06:47:39;;;;;;;;;20.50;19.25;;;;;6.40;71.58;101049.75;5045712;28;45741;-82
2022/12/03 06:50:06;;;;;;;;;20.50;18.00;;;;;6.55;71.66;101070.59;5047839;28;45266;-82
2022/12/03 06:52:31;;;;;;;;;19.75;14.50;;;;;6.57;71.59;101078.50;5046360;28;45315;-82
2022/12/03 06:54:57;;;;;;;;;16.67;14.67;;;;;6.58;71.57;101080.28;5046767;28;45983;-81
2022/12/03 06:57:22;;;;;;;;;20.75;18.00;;;;;6.47;71.29;101062.31;5011011;28;47121;-81
2022/12/03 06:59:47;;;;;;;;;20.00;18.67;;;;;6.52;71.59;101069.50;5028927;28;59265;-81
2022/12/03 07:02:13;;;;;;;;;14.00;12.00;;;;;6.54;71.39;101076.59;5028531;28;45704;-81
2022/12/03 07:04:38;;;;;;;;;21.33;14.67;;;;;6.43;71.28;101049.88;5028229;28;59811;-81
2022/12/03 07:07:03;;;;;;;;;17.25;15.00;;;;;6.55;71.16;101069.66;5028763;28;46274;-81
2022/12/03 07:09:29;;;;;;;;;18.00;17.50;;;;;6.45;71.16;101060.41;5029231;28;45506;-81
2022/12/03 07:11:54;;;;;;;;;17.33;16.00;;;;;6.52;71.32;101067.78;5039926;28;52529;-80
2022/12/03 07:14:19;;;;;;;;;26.33;18.00;;;;;6.53;70.89;101071.28;5046628;28;58391;-81
2022/12/03 07:16:45;;;;;;;;;19.75;16.50;;;;;6.51;70.77;101062.50;5045676;28;45107;-79
2022/12/03 07:19:10;;;;;;;;;21.50;16.25;;;;;6.46;71.15;101057.91;5015647;28;45442;-80
2022/12/03 07:21:36;;;;;;;;;23.00;19.75;;;;;6.56;70.89;101068.88;5010818;28;45574;-81
2022/12/03 07:24:01;;;;;;;;;22.75;18.00;;;;;6.56;70.75;101069.75;5028809;28;45433;-81
2022/12/03 07:26:27;;;;;;;;;20.75;18.00;;;;;6.51;70.86;101058.16;5042931;28;45423;-81
2022/12/03 07:28:52;;;;;;;;;24.25;19.50;;;;;6.57;70.87;101074.16;5039721;28;47703;-80
2022/12/03 07:31:17;;;;;;;;;21.50;20.00;;;;;6.57;71.00;101078.50;5030005;28;45539;-82
2022/12/03 07:33:43;;;;;;;;;18.33;16.00;;;;;6.60;71.07;101078.66;5031587;28;56770;-82
2022/12/03 07:36:09;;;;;;;;;21.25;20.00;;;;;6.43;70.88;101059.44;5031873;28;46137;-81
2022/12/03 07:38:34;;;;;;;;;18.00;16.00;;;;;6.49;70.86;101070.22;5014259;28;45405;-81
2022/12/03 07:41:00;;;;;;;;;21.25;20.00;;;;;6.59;70.87;101090.81;5031931;28;45445;-81
2022/12/03 07:43:25;;;;;;;;;22.50;21.00;;;;;6.49;70.60;101058.88;5014090;28;45328;-80
2022/12/03 07:45:51;;;;;;;;;23.75;17.50;;;;;6.63;70.93;101086.66;5031888;28;46097;-82
2022/12/03 07:48:16;;;;;;;;;24.67;19.33;;;;;6.62;70.60;101087.47;5031199;28;45499;-81
2022/12/03 07:50:41;;;;;;;;;23.00;19.00;;;;;6.50;70.89;101069.41;5031909;28;47237;-82
2022/12/03 07:53:06;;;;;;;;;20.75;19.25;;;;;6.66;70.87;101086.84;5031729;28;45446;-81
2022/12/03 07:55:32;;;;;;;;;7.00;3.00;;;;;6.63;70.73;101094.50;5031624;28;53424;-81
2022/12/03 07:57:57;;;;;;;;;24.50;20.25;;;;;6.39;70.57;101054.84;5013859;28;45504;-81
2022/12/03 08:00:22;;;;;;;;;20.00;17.67;;;;;6.40;70.46;101059.25;5030674;28;53328;-82
2022/12/03 08:02:48;;;;;;;;;23.50;20.25;;;;;6.53;70.73;101076.53;5031916;28;45628;-82
2022/12/03 08:05:13;;;;;;;;;23.00;19.25;;;;;6.55;70.63;101067.97;5031653;28;45371;-81
2022/12/03 08:07:38;;;;;;;;;23.75;22.50;;;;;6.64;70.61;101083.22;5032152;28;45473;-82
2022/12/03 08:10:05;;;;;;;;;28.00;22.67;;;;;6.54;70.65;101062.66;5031208;28;53862;-82
2022/12/03 08:12:42;;;;;;;;;22.75;20.50;;;;;6.57;70.57;101061.13;5031485;28;45716;-82
2022/12/03 08:15:19;;;;;;;;;19.25;16.75;;;;;6.49;70.51;101044.09;5031214;28;45474;-82
2022/12/03 08:17:50;;;;;;;;;22.25;19.75;;;;;6.53;70.50;101048.69;5031594;28;45424;-80
2022/12/03 08:20:18;;;;;;;;;24.00;19.25;;;;;6.57;70.48;101053.28;5031363;28;45384;-81
2022/12/03 08:22:46;;;;;;;;;20.50;16.75;;;;;6.71;70.70;101068.00;5031894;28;45876;-83
2022/12/03 08:25:20;;;;;;;;;22.50;20.00;;;;;6.67;70.50;101055.59;5030810;28;46279;-81
2022/12/03 08:27:45;;;;;;;;;31.50;21.50;;;;;6.52;70.67;101038.16;5031594;28;45809;-81
2022/12/03 08:30:13;;;;;;;;;21.75;19.00;;;;;6.71;70.91;101078.44;5030366;28;51751;-82
2022/12/03 08:32:39;;;;;;;;;22.00;20.00;;;;;6.76;71.04;101080.41;5031278;28;45594;-81
2022/12/03 08:35:09;;;;;;;;;23.50;20.00;;;;;6.57;71.00;101048.06;5031096;28;45825;-79
2022/12/03 08:37:35;;;;;;;;;22.25;19.75;;;;;6.82;70.97;101093.81;5031536;28;45384;-82
2022/12/03 08:40:00;;;;;;;;;30.33;21.33;;;;;6.55;70.92;101038.31;5031053;28;45519;-81
2022/12/03 08:42:40;;;;;;;;;19.00;16.50;;;;;6.80;70.58;101082.34;5029814;28;46036;-82
2022/12/03 08:45:25;;;;;;;;;22.50;19.50;;;;;6.72;70.54;101088.06;5030726;28;45931;-81
2022/12/03 08:47:51;;;;;;;;;23.25;22.50;;;;;6.69;70.63;101085.28;5031216;28;46016;-83
2022/12/03 08:50:26;;;;;;;;;25.00;22.25;;;;;6.73;70.84;101096.81;5031064;28;45709;-82
2022/12/03 08:52:53;;;;;;;;;25.00;20.75;;;;;6.46;70.77;101038.75;5031721;28;45726;-83
2022/12/03 08:55:33;;;;;;;;;20.25;18.00;;;;;6.55;71.08;101054.00;5030140;28;46335;-82
2022/12/03 08:57:59;;;;;;;;;23.75;19.00;;;;;6.75;70.70;101084.75;5036109;28;45813;-80
2022/12/03 09:00:24;;;;;;;;;28.50;21.00;;;;;6.56;70.40;101050.59;5030625;28;45434;-82
2022/12/03 09:02:52;;;;;;;;;24.50;22.50;;;;;6.64;70.53;101076.28;5031595;28;45670;-82
2022/12/03 09:05:25;;;;;;;;;24.75;19.00;;;;;6.77;70.90;101084.81;5030702;28;45525;-81
2022/12/03 09:07:51;;;;;;;;;18.75;17.50;;;;;6.52;70.35;101043.41;5031441;28;45353;-81
2022/12/03 09:10:16;;;;;;;;;21.00;16.00;;;;;6.70;70.49;101081.88;5030593;28;45360;-81
2022/12/03 09:12:41;;;;;;;;;16.50;16.00;;;;;6.70;70.38;101080.97;5030983;28;56410;-82
2022/12/03 09:15:07;;;;;;;;;21.00;19.00;;;;;6.48;70.50;101042.31;5030812;28;51766;-82
2022/12/03 09:17:32;;;;;;;;;19.75;17.00;;;;;6.72;70.53;101080.25;5030726;28;45579;-82
2022/12/03 09:19:58;;;;;;;;;26.25;15.50;;;;;6.61;70.46;101056.97;5033204;28;45592;-81
2022/12/03 09:22:23;;;;;;;;;26.00;23.33;;;;;6.55;70.44;101057.53;5030946;28;54275;-81
2022/12/03 09:24:48;;;;;;;;;19.67;18.00;;;;;6.61;70.27;101060.47;5033229;28;62736;-80
2022/12/03 09:27:14;;;;;;;;;16.67;15.00;;;;;6.56;70.33;101051.47;5042643;28;58820;-82
2022/12/03 09:29:39;;;;;;;;;16.25;11.25;;;;;6.61;70.22;101056.97;5044590;28;44925;-81
2022/12/03 09:32:04;;;;;;;;;22.00;19.00;;;;;6.61;70.47;101049.13;5043034;28;44948;-80
2022/12/03 09:34:29;;;;;;;;;20.33;19.00;;;;;6.60;70.46;101048.22;5041506;28;65906;-81
2022/12/03 09:36:55;;;;;;;;;20.50;19.25;;;;;6.82;70.36;101080.75;5047094;28;45401;-81
2022/12/03 09:39:20;;;;;;;;;21.00;17.33;;;;;6.55;70.08;101041.88;5029704;28;46519;-82
2022/12/03 09:41:46;;;;;;;;;24.33;23.67;;;;;6.63;70.12;101040.56;5030470;28;45565;-81
2022/12/03 09:44:11;;;;;;;;;20.25;17.75;;;;;6.71;70.13;101051.44;5029946;28;46577;-81
2022/12/03 09:46:39;;;;;;;;;17.50;16.00;;;;;6.89;70.02;101075.03;5029792;28;45442;-82
2022/12/03 09:49:06;;;;;;;;;21.25;19.50;;;;;6.93;69.95;101075.28;5030322;28;45567;-83
2022/12/03 09:51:34;;;;;;;;;20.00;18.25;;;;;6.85;69.84;101057.41;5030293;28;45424;-82
2022/12/03 09:54:01;;;;;;;;;20.00;18.75;;;;;6.85;69.97;101044.34;5029486;28;45382;-82
2022/12/03 09:56:27;;;;;;;;;18.75;16.25;;;;;6.97;70.09;101071.13;5029884;28;45455;-81
2022/12/03 09:58:53;;;;;;;;;17.50;17.00;;;;;6.87;70.00;101046.22;5030480;28;45468;-82
2022/12/03 10:01:18;;;;;;;;;19.50;16.75;;;;;6.84;69.86;101032.97;5028949;28;45395;-82
2022/12/03 10:03:48;;;;;;;;;21.25;18.50;;;;;6.87;69.66;101033.16;5030238;28;45713;-83
2022/12/03 10:06:18;;;;;;;;;19.00;17.00;;;;;7.09;69.86;101063.03;5029881;28;45490;-81
2022/12/03 10:08:47;;;;;;;;;20.25;20.00;;;;;7.01;69.93;101046.06;5030178;28;45598;-81
2022/12/03 10:11:13;;;;;;;;;24.25;20.50;;;;;7.12;69.68;101055.38;5029717;28;45531;-81
2022/12/03 10:13:39;;;;;;;;;23.00;19.25;;;;;7.13;69.83;101045.00;5030078;28;45519;-82
2022/12/03 10:16:09;;;;;;;;;14.50;14.25;;;;;7.08;69.70;101030.78;5029111;28;46138;-82
2022/12/03 10:18:35;;;;;;;;;26.25;22.50;;;;;7.16;69.79;101046.88;5030160;28;45585;-82
2022/12/03 10:21:01;;;;;;;;;17.25;15.75;;;;;7.12;69.59;101044.91;5029723;28;45730;-82
2022/12/03 10:23:28;;;;;;;;;22.25;19.25;;;;;6.98;69.98;101020.66;5029066;28;45690;-82
2022/12/03 10:25:55;;;;;;;;;26.50;22.00;;;;;7.20;69.89;101049.75;5029973;28;45837;-81
2022/12/03 10:28:29;;;;;;;;;26.25;22.50;;;;;7.05;69.57;101020.19;5029590;28;45456;-82
2022/12/03 10:30:56;;;;;;;;;24.75;19.75;;;;;7.14;69.33;101028.50;5029306;28;45522;-81
2022/12/03 10:33:37;;;;;;;;;25.25;22.00;;;;;7.07;69.44;101010.69;5029228;28;46252;-81
2022/12/03 10:36:23;;;;;;;;;22.75;18.00;;;;;7.32;69.46;101040.75;5029661;28;45899;-81
2022/12/03 10:39:08;;;;;;;;;19.50;15.75;;;;;7.35;69.52;101043.53;5029633;28;45463;-81
2022/12/03 10:41:34;;;;;;;;;20.00;16.25;;;;;7.39;69.48;101037.59;5029447;28;45770;-81
2022/12/03 10:44:21;;;;;;;;;22.75;20.50;;;;;7.29;69.20;101011.81;5029371;28;45478;-82
2022/12/03 10:47:05;;;;;;;;;20.50;19.00;;;;;7.46;69.20;101032.78;5029199;28;45442;-81
2022/12/03 10:49:30;;;;;;;;;25.75;23.75;;;;;7.40;69.32;101019.41;5029534;28;45625;-80
2022/12/03 10:51:56;;;;;;;;;23.00;21.25;;;;;7.37;69.36;101013.13;5029688;28;45526;-81
2022/12/03 10:54:23;;;;;;;;;21.00;19.50;;;;;7.57;69.03;101025.47;5028680;28;45774;-81
2022/12/03 10:56:50;;;;;;;;;24.25;21.75;;;;;7.61;69.14;101019.59;5029451;28;45476;-81
2022/12/03 10:59:20;;;;;;;;;20.00;17.50;;;;;7.52;69.02;101005.16;5029081;28;45298;-81
2022/12/03 11:01:47;;;;;;;;;20.50;16.75;;;;;7.63;68.82;101020.56;5028555;28;45561;-80
2022/12/03 11:04:31;;;;;;;;;18.75;17.00;;;;;7.41;69.07;100983.69;5028787;28;46401;-82
2022/12/03 11:06:56;;;;;;;;;21.00;19.25;;;;;7.59;68.97;101005.56;5031288;28;45799;-81
2022/12/03 11:09:28;;;;;;;;;20.00;18.25;;;;;7.61;68.55;101013.47;5032771;28;45423;-81
2022/12/03 11:11:54;;;;;;;;;19.25;17.25;;;;;7.66;68.69;101009.38;5032894;28;45356;-81
2022/12/03 11:14:47;;;;;;;;;23.50;20.25;;;;;7.66;68.63;101002.41;5032136;28;45915;-80
2022/12/03 11:17:12;;;;;;;;;20.25;19.25;;;;;7.67;68.61;101004.19;5032320;28;45566;-81
2022/12/03 11:19:43;;;;;;;;;24.50;19.00;;;;;7.69;68.63;101005.19;5032669;28;45450;-82
2022/12/03 11:22:09;;;;;;;;;22.00;21.00;;;;;7.68;68.72;101003.38;5031974;28;45546;-82
2022/12/03 11:24:36;;;;;;;;;17.50;16.75;;;;;7.69;68.64;101005.19;5032447;28;45478;-82
2022/12/03 11:27:02;;;;;;;;;18.75;17.00;;;;;7.65;68.35;100999.72;5014487;28;45396;-81
2022/12/03 11:29:48;;;;;;;;;18.67;18.00;;;;;7.63;68.44;100996.13;5032482;28;45515;-81
2022/12/03 11:32:39;;;;;;;;;21.50;20.50;;;;;7.62;68.42;100992.63;5031732;28;45646;-82
2022/12/03 11:35:34;;;;;;;;;22.25;20.25;;;;;7.61;68.43;100987.31;5032067;28;46243;-81
2022/12/03 11:38:39;;;;;;;;;24.50;23.00;;;;;7.62;68.43;100986.50;5030651;28;45469;-81
2022/12/03 11:41:15;;;;;;;;;23.00;18.75;;;;;7.52;68.57;100964.19;5039835;28;45416;-80